sensor_id;sensor_type;location;lat;lon;timestamp;P1;durP1;ratioP1;P2;durP2;ratioP2
2462;SDS011;1243;54.298;10.172;2024-03-23T00:53:52;7.33;;;3.80;;
2462;SDS011;1243;54.298;10.172;2024-03-23T00:56:18;17.17;;;4.97;;
2462;SDS011;1243;54.298;10.172;2024-03-23T00:58:43;22.60;;;5.43;;
2462;SDS011;1243;54.298;10.172;2024-03-23T01:01:10;17.57;;;4.90;;
2462;SDS011;1243;54.298;10.172;2024-03-23T01:03:36;14.73;;;4.73;;
2462;SDS011;1243;54.298;10.172;2024-03-23T01:06:02;18.27;;;4.57;;
2462;SDS011;1243;54.298;10.172;2024-03-23T01:08:29;23.43;;;7.10;;
2462;SDS011;1243;54.298;10.172;2024-03-23T01:11:00;10.50;;;4.90;;
2462;SDS011;1243;54.298;10.172;2024-03-23T01:13:27;23.70;;;5.37;;
2462;SDS011;1243;54.298;10.172;2024-03-23T01:15:53;18.20;;;5.33;;
2462;SDS011;1243;54.298;10.172;2024-03-23T01:18:22;15.30;;;4.13;;
2462;SDS011;1243;54.298;10.172;2024-03-23T01:20:48;19.53;;;4.73;;
2462;SDS011;1243;54.298;10.172;2024-03-23T01:23:14;18.43;;;5.03;;
2462;SDS011;1243;54.298;10.172;2024-03-23T01:25:40;16.23;;;5.53;;
2462;SDS011;1243;54.298;10.172;2024-03-23T01:28:06;13.77;;;4.17;;
2462;SDS011;1243;54.298;10.172;2024-03-23T01:30:33;16.40;;;5.00;;
2462;SDS011;1243;54.298;10.172;2024-03-23T01:32:59;16.40;;;5.80;;
2462;SDS011;1243;54.298;10.172;2024-03-23T01:35:24;15.93;;;6.13;;
2462;SDS011;1243;54.298;10.172;2024-03-23T01:37:50;26.50;;;5.20;;
2462;SDS011;1243;54.298;10.172;2024-03-23T01:40:16;21.50;;;5.73;;
2462;SDS011;1243;54.298;10.172;2024-03-23T01:42:42;29.20;;;4.80;;
2462;SDS011;1243;54.298;10.172;2024-03-23T01:45:08;16.90;;;5.40;;
2462;SDS011;1243;54.298;10.172;2024-03-23T01:47:35;15.90;;;4.63;;
2462;SDS011;1243;54.298;10.172;2024-03-23T01:50:00;23.90;;;5.70;;
2462;SDS011;1243;54.298;10.172;2024-03-23T01:52:26;22.97;;;5.63;;
2462;SDS011;1243;54.298;10.172;2024-03-23T01:54:53;26.70;;;6.10;;
2462;SDS011;1243;54.298;10.172;2024-03-23T01:57:19;36.83;;;7.10;;
2462;SDS011;1243;54.298;10.172;2024-03-23T01:59:46;22.90;;;6.80;;
2462;SDS011;1243;54.298;10.172;2024-03-23T02:02:12;13.53;;;4.60;;
2462;SDS011;1243;54.298;10.172;2024-03-23T02:04:38;13.00;;;4.90;;
2462;SDS011;1243;54.298;10.172;2024-03-23T02:07:07;20.00;;;5.67;;
2462;SDS011;1243;54.298;10.172;2024-03-23T02:09:33;24.37;;;5.33;;
2462;SDS011;1243;54.298;10.172;2024-03-23T02:12:01;18.00;;;4.70;;
2462;SDS011;1243;54.298;10.172;2024-03-23T02:14:28;19.47;;;6.00;;
2462;SDS011;1243;54.298;10.172;2024-03-23T02:16:54;14.60;;;3.80;;
2462;SDS011;1243;54.298;10.172;2024-03-23T02:19:20;11.77;;;4.60;;
2462;SDS011;1243;54.298;10.172;2024-03-23T02:21:45;16.63;;;4.83;;
2462;SDS011;1243;54.298;10.172;2024-03-23T02:24:12;11.63;;;4.30;;
2462;SDS011;1243;54.298;10.172;2024-03-23T02:26:38;17.83;;;4.43;;
2462;SDS011;1243;54.298;10.172;2024-03-23T02:29:03;14.30;;;5.17;;
2462;SDS011;1243;54.298;10.172;2024-03-23T02:31:29;18.40;;;5.03;;
2462;SDS011;1243;54.298;10.172;2024-03-23T02:33:55;17.33;;;5.10;;
2462;SDS011;1243;54.298;10.172;2024-03-23T02:36:22;14.00;;;4.77;;
2462;SDS011;1243;54.298;10.172;2024-03-23T02:38:48;15.43;;;4.40;;
2462;SDS011;1243;54.298;10.172;2024-03-23T02:41:14;16.40;;;4.20;;
2462;SDS011;1243;54.298;10.172;2024-03-23T02:43:40;19.93;;;4.43;;
2462;SDS011;1243;54.298;10.172;2024-03-23T02:46:06;21.37;;;4.80;;
2462;SDS011;1243;54.298;10.172;2024-03-23T02:48:32;19.13;;;5.50;;
2462;SDS011;1243;54.298;10.172;2024-03-23T02:50:58;28.40;;;5.70;;
2462;SDS011;1243;54.298;10.172;2024-03-23T02:53:24;12.40;;;4.27;;
2462;SDS011;1243;54.298;10.172;2024-03-23T02:55:49;9.90;;;3.93;;
2462;SDS011;1243;54.298;10.172;2024-03-23T02:58:15;13.17;;;4.30;;
2462;SDS011;1243;54.298;10.172;2024-03-23T03:00:40;14.30;;;5.63;;
2462;SDS011;1243;54.298;10.172;2024-03-23T03:03:06;19.63;;;4.87;;
2462;SDS011;1243;54.298;10.172;2024-03-23T03:05:32;9.20;;;4.97;;
2462;SDS011;1243;54.298;10.172;2024-03-23T03:07:58;20.30;;;4.70;;
2462;SDS011;1243;54.298;10.172;2024-03-23T03:10:23;15.03;;;5.83;;
2462;SDS011;1243;54.298;10.172;2024-03-23T03:12:49;12.60;;;4.37;;
2462;SDS011;1243;54.298;10.172;2024-03-23T03:15:15;11.27;;;5.87;;
2462;SDS011;1243;54.298;10.172;2024-03-23T03:17:40;24.60;;;5.00;;
2462;SDS011;1243;54.298;10.172;2024-03-23T03:20:06;16.10;;;4.00;;
2462;SDS011;1243;54.298;10.172;2024-03-23T03:22:38;12.90;;;4.10;;
2462;SDS011;1243;54.298;10.172;2024-03-23T03:25:04;19.20;;;5.00;;
2462;SDS011;1243;54.298;10.172;2024-03-23T03:27:32;16.17;;;5.37;;
2462;SDS011;1243;54.298;10.172;2024-03-23T03:29:58;21.53;;;4.93;;
2462;SDS011;1243;54.298;10.172;2024-03-23T03:32:25;19.83;;;5.20;;
2462;SDS011;1243;54.298;10.172;2024-03-23T03:34:51;20.10;;;5.33;;
2462;SDS011;1243;54.298;10.172;2024-03-23T03:37:17;14.07;;;4.17;;
2462;SDS011;1243;54.298;10.172;2024-03-23T03:39:42;9.33;;;3.80;;
2462;SDS011;1243;54.298;10.172;2024-03-23T03:42:08;7.97;;;3.50;;
2462;SDS011;1243;54.298;10.172;2024-03-23T03:44:34;13.73;;;5.20;;
2462;SDS011;1243;54.298;10.172;2024-03-23T03:47:01;12.27;;;4.57;;
2462;SDS011;1243;54.298;10.172;2024-03-23T03:49:27;25.87;;;4.67;;
2462;SDS011;1243;54.298;10.172;2024-03-23T03:51:53;19.57;;;4.27;;
2462;SDS011;1243;54.298;10.172;2024-03-23T03:54:19;18.63;;;4.77;;
2462;SDS011;1243;54.298;10.172;2024-03-23T03:56:44;16.73;;;4.97;;
2462;SDS011;1243;54.298;10.172;2024-03-23T03:59:10;17.70;;;4.23;;
2462;SDS011;1243;54.298;10.172;2024-03-23T04:01:36;20.17;;;5.13;;
2462;SDS011;1243;54.298;10.172;2024-03-23T04:04:01;17.93;;;4.97;;
2462;SDS011;1243;54.298;10.172;2024-03-23T04:06:27;21.00;;;4.40;;
2462;SDS011;1243;54.298;10.172;2024-03-23T04:08:53;14.47;;;5.10;;
2462;SDS011;1243;54.298;10.172;2024-03-23T04:11:19;16.57;;;4.37;;
2462;SDS011;1243;54.298;10.172;2024-03-23T04:13:44;14.83;;;5.33;;
2462;SDS011;1243;54.298;10.172;2024-03-23T04:16:10;20.53;;;5.90;;
2462;SDS011;1243;54.298;10.172;2024-03-23T04:18:36;15.63;;;5.50;;
2462;SDS011;1243;54.298;10.172;2024-03-23T04:21:01;11.20;;;5.03;;
2462;SDS011;1243;54.298;10.172;2024-03-23T04:23:27;26.93;;;5.67;;
2462;SDS011;1243;54.298;10.172;2024-03-23T04:25:53;11.40;;;5.67;;
2462;SDS011;1243;54.298;10.172;2024-03-23T04:28:19;9.80;;;4.50;;
2462;SDS011;1243;54.298;10.172;2024-03-23T04:30:45;21.20;;;6.07;;
2462;SDS011;1243;54.298;10.172;2024-03-23T04:33:10;8.00;;;5.10;;
2462;SDS011;1243;54.298;10.172;2024-03-23T04:35:36;21.67;;;5.73;;
2462;SDS011;1243;54.298;10.172;2024-03-23T04:38:02;18.13;;;5.87;;
2462;SDS011;1243;54.298;10.172;2024-03-23T04:40:27;21.30;;;6.47;;
2462;SDS011;1243;54.298;10.172;2024-03-23T04:42:53;14.67;;;5.40;;
2462;SDS011;1243;54.298;10.172;2024-03-23T04:45:19;18.27;;;6.23;;
2462;SDS011;1243;54.298;10.172;2024-03-23T04:47:44;24.10;;;6.50;;
2462;SDS011;1243;54.298;10.172;2024-03-23T04:50:10;25.30;;;8.17;;
2462;SDS011;1243;54.298;10.172;2024-03-23T04:52:36;21.90;;;6.70;;
2462;SDS011;1243;54.298;10.172;2024-03-23T04:55:01;13.00;;;5.30;;
2462;SDS011;1243;54.298;10.172;2024-03-23T04:57:27;17.40;;;7.47;;
2462;SDS011;1243;54.298;10.172;2024-03-23T04:59:54;15.10;;;5.63;;
2462;SDS011;1243;54.298;10.172;2024-03-23T05:02:19;18.80;;;6.20;;
2462;SDS011;1243;54.298;10.172;2024-03-23T05:04:45;19.67;;;6.70;;
2462;SDS011;1243;54.298;10.172;2024-03-23T05:07:11;21.13;;;6.60;;
2462;SDS011;1243;54.298;10.172;2024-03-23T05:09:36;16.10;;;6.80;;
2462;SDS011;1243;54.298;10.172;2024-03-23T05:12:02;15.43;;;6.37;;
2462;SDS011;1243;54.298;10.172;2024-03-23T05:14:29;15.57;;;6.10;;
2462;SDS011;1243;54.298;10.172;2024-03-23T05:16:54;18.20;;;6.10;;
2462;SDS011;1243;54.298;10.172;2024-03-23T05:19:21;25.00;;;7.27;;
2462;SDS011;1243;54.298;10.172;2024-03-23T05:21:47;28.20;;;9.90;;
2462;SDS011;1243;54.298;10.172;2024-03-23T05:24:13;14.03;;;7.10;;
2462;SDS011;1243;54.298;10.172;2024-03-23T05:26:38;23.43;;;6.97;;
2462;SDS011;1243;54.298;10.172;2024-03-23T05:29:04;18.53;;;7.03;;
2462;SDS011;1243;54.298;10.172;2024-03-23T05:31:32;16.73;;;6.33;;
2462;SDS011;1243;54.298;10.172;2024-03-23T05:33:57;17.80;;;8.00;;
2462;SDS011;1243;54.298;10.172;2024-03-23T05:36:23;11.43;;;7.13;;
2462;SDS011;1243;54.298;10.172;2024-03-23T05:38:49;23.17;;;7.20;;
2462;SDS011;1243;54.298;10.172;2024-03-23T05:41:15;17.90;;;6.50;;
2462;SDS011;1243;54.298;10.172;2024-03-23T05:43:40;20.17;;;7.40;;
2462;SDS011;1243;54.298;10.172;2024-03-23T05:46:06;21.77;;;7.47;;
2462;SDS011;1243;54.298;10.172;2024-03-23T05:48:35;27.20;;;7.20;;
2462;SDS011;1243;54.298;10.172;2024-03-23T05:51:01;14.40;;;6.40;;
2462;SDS011;1243;54.298;10.172;2024-03-23T05:53:27;14.47;;;6.40;;
2462;SDS011;1243;54.298;10.172;2024-03-23T05:56:01;23.00;;;6.30;;
2462;SDS011;1243;54.298;10.172;2024-03-23T05:58:31;15.53;;;6.30;;
2462;SDS011;1243;54.298;10.172;2024-03-23T06:00:58;25.27;;;7.43;;
2462;SDS011;1243;54.298;10.172;2024-03-23T06:03:25;21.43;;;6.97;;
2462;SDS011;1243;54.298;10.172;2024-03-23T06:05:51;11.73;;;6.43;;
2462;SDS011;1243;54.298;10.172;2024-03-23T06:08:18;16.47;;;8.30;;
2462;SDS011;1243;54.298;10.172;2024-03-23T06:10:44;20.33;;;8.43;;
2462;SDS011;1243;54.298;10.172;2024-03-23T06:13:13;14.03;;;6.20;;
2462;SDS011;1243;54.298;10.172;2024-03-23T06:15:39;25.57;;;10.80;;
2462;SDS011;1243;54.298;10.172;2024-03-23T06:18:05;19.13;;;6.40;;
2462;SDS011;1243;54.298;10.172;2024-03-23T06:20:32;16.20;;;6.77;;
2462;SDS011;1243;54.298;10.172;2024-03-23T06:22:59;15.77;;;7.30;;
2462;SDS011;1243;54.298;10.172;2024-03-23T06:25:28;24.13;;;7.80;;
2462;SDS011;1243;54.298;10.172;2024-03-23T06:27:54;17.17;;;5.90;;
2462;SDS011;1243;54.298;10.172;2024-03-23T06:30:20;15.47;;;8.43;;
2462;SDS011;1243;54.298;10.172;2024-03-23T06:32:46;13.73;;;5.77;;
2462;SDS011;1243;54.298;10.172;2024-03-23T06:35:12;21.27;;;6.07;;
2462;SDS011;1243;54.298;10.172;2024-03-23T06:37:37;16.70;;;6.90;;
2462;SDS011;1243;54.298;10.172;2024-03-23T06:40:04;21.10;;;7.27;;
2462;SDS011;1243;54.298;10.172;2024-03-23T06:42:33;20.70;;;7.03;;
2462;SDS011;1243;54.298;10.172;2024-03-23T06:44:59;14.73;;;6.67;;
2462;SDS011;1243;54.298;10.172;2024-03-23T06:47:25;21.17;;;7.10;;
2462;SDS011;1243;54.298;10.172;2024-03-23T06:49:50;21.47;;;6.90;;
2462;SDS011;1243;54.298;10.172;2024-03-23T06:52:16;16.87;;;6.63;;
2462;SDS011;1243;54.298;10.172;2024-03-23T06:54:42;21.90;;;6.57;;
2462;SDS011;1243;54.298;10.172;2024-03-23T06:57:09;23.00;;;7.67;;
2462;SDS011;1243;54.298;10.172;2024-03-23T06:59:37;22.60;;;7.73;;
2462;SDS011;1243;54.298;10.172;2024-03-23T07:02:03;21.50;;;7.50;;
2462;SDS011;1243;54.298;10.172;2024-03-23T07:04:30;22.97;;;7.20;;
2462;SDS011;1243;54.298;10.172;2024-03-23T07:06:56;25.60;;;6.27;;
2462;SDS011;1243;54.298;10.172;2024-03-23T07:09:21;19.53;;;6.50;;
2462;SDS011;1243;54.298;10.172;2024-03-23T07:11:51;23.40;;;7.13;;
2462;SDS011;1243;54.298;10.172;2024-03-23T07:14:18;24.47;;;8.97;;
2462;SDS011;1243;54.298;10.172;2024-03-23T07:16:44;18.10;;;7.60;;
2462;SDS011;1243;54.298;10.172;2024-03-23T07:19:09;17.60;;;8.43;;
2462;SDS011;1243;54.298;10.172;2024-03-23T07:21:35;15.70;;;7.10;;
2462;SDS011;1243;54.298;10.172;2024-03-23T07:24:01;14.30;;;6.67;;
2462;SDS011;1243;54.298;10.172;2024-03-23T07:26:26;21.13;;;6.77;;
2462;SDS011;1243;54.298;10.172;2024-03-23T07:28:52;15.23;;;7.77;;
2462;SDS011;1243;54.298;10.172;2024-03-23T07:31:18;18.83;;;6.83;;
2462;SDS011;1243;54.298;10.172;2024-03-23T07:33:45;23.97;;;7.93;;
2462;SDS011;1243;54.298;10.172;2024-03-23T07:36:12;19.17;;;7.93;;
2462;SDS011;1243;54.298;10.172;2024-03-23T07:38:41;32.80;;;7.60;;
2462;SDS011;1243;54.298;10.172;2024-03-23T07:41:08;28.07;;;8.83;;
2462;SDS011;1243;54.298;10.172;2024-03-23T07:43:35;12.10;;;8.10;;
2462;SDS011;1243;54.298;10.172;2024-03-23T07:46:05;23.70;;;7.90;;
2462;SDS011;1243;54.298;10.172;2024-03-23T07:48:31;21.43;;;7.03;;
2462;SDS011;1243;54.298;10.172;2024-03-23T07:51:05;17.77;;;8.00;;
2462;SDS011;1243;54.298;10.172;2024-03-23T07:53:32;19.40;;;8.10;;
2462;SDS011;1243;54.298;10.172;2024-03-23T07:55:59;23.70;;;8.40;;
2462;SDS011;1243;54.298;10.172;2024-03-23T07:58:32;16.97;;;8.00;;
2462;SDS011;1243;54.298;10.172;2024-03-23T08:03:50;23.97;;;9.93;;
2462;SDS011;1243;54.298;10.172;2024-03-23T08:06:19;25.37;;;9.40;;
2462;SDS011;1243;54.298;10.172;2024-03-23T08:08:47;23.70;;;8.50;;
2462;SDS011;1243;54.298;10.172;2024-03-23T08:11:24;14.50;;;8.60;;
2462;SDS011;1243;54.298;10.172;2024-03-23T08:13:54;22.73;;;7.77;;
2462;SDS011;1243;54.298;10.172;2024-03-23T08:16:20;18.33;;;7.73;;
2462;SDS011;1243;54.298;10.172;2024-03-23T08:18:46;20.83;;;7.60;;
2462;SDS011;1243;54.298;10.172;2024-03-23T08:21:12;25.20;;;9.27;;
2462;SDS011;1243;54.298;10.172;2024-03-23T08:23:38;15.53;;;8.03;;
2462;SDS011;1243;54.298;10.172;2024-03-23T08:26:05;17.33;;;8.20;;
2462;SDS011;1243;54.298;10.172;2024-03-23T08:28:36;20.87;;;7.23;;
2462;SDS011;1243;54.298;10.172;2024-03-23T08:31:10;14.13;;;7.07;;
2462;SDS011;1243;54.298;10.172;2024-03-23T08:33:37;29.83;;;11.80;;
2462;SDS011;1243;54.298;10.172;2024-03-23T08:36:07;16.97;;;6.70;;
2462;SDS011;1243;54.298;10.172;2024-03-23T08:38:34;19.10;;;6.87;;
2462;SDS011;1243;54.298;10.172;2024-03-23T08:41:04;17.20;;;7.03;;
2462;SDS011;1243;54.298;10.172;2024-03-23T08:43:37;18.03;;;7.20;;
2462;SDS011;1243;54.298;10.172;2024-03-23T08:46:10;20.67;;;6.60;;
2462;SDS011;1243;54.298;10.172;2024-03-23T08:48:41;12.07;;;7.40;;
2462;SDS011;1243;54.298;10.172;2024-03-23T08:51:12;15.70;;;7.33;;
2462;SDS011;1243;54.298;10.172;2024-03-23T08:53:39;14.80;;;7.43;;
2462;SDS011;1243;54.298;10.172;2024-03-23T08:56:05;22.27;;;7.03;;
2462;SDS011;1243;54.298;10.172;2024-03-23T08:58:35;13.20;;;7.47;;
2462;SDS011;1243;54.298;10.172;2024-03-23T09:01:07;18.03;;;6.40;;
2462;SDS011;1243;54.298;10.172;2024-03-23T09:03:35;10.50;;;6.00;;
2462;SDS011;1243;54.298;10.172;2024-03-23T09:06:07;10.80;;;5.53;;
2462;SDS011;1243;54.298;10.172;2024-03-23T09:08:40;11.03;;;4.50;;
2462;SDS011;1243;54.298;10.172;2024-03-23T09:11:08;9.30;;;4.30;;
2462;SDS011;1243;54.298;10.172;2024-03-23T09:13:37;9.50;;;4.80;;
2462;SDS011;1243;54.298;10.172;2024-03-23T09:16:04;21.53;;;6.37;;
2462;SDS011;1243;54.298;10.172;2024-03-23T09:18:31;11.37;;;3.97;;
2462;SDS011;1243;54.298;10.172;2024-03-23T09:21:00;13.50;;;4.80;;
2462;SDS011;1243;54.298;10.172;2024-03-23T09:23:26;10.23;;;4.50;;
2462;SDS011;1243;54.298;10.172;2024-03-23T09:25:54;15.23;;;5.30;;
2462;SDS011;1243;54.298;10.172;2024-03-23T09:28:21;7.00;;;2.77;;
2462;SDS011;1243;54.298;10.172;2024-03-23T09:30:47;3.17;;;2.40;;
2462;SDS011;1243;54.298;10.172;2024-03-23T09:33:14;3.93;;;2.13;;
2462;SDS011;1243;54.298;10.172;2024-03-23T09:35:43;3.30;;;2.40;;
2462;SDS011;1243;54.298;10.172;2024-03-23T09:38:11;3.00;;;2.07;;
2462;SDS011;1243;54.298;10.172;2024-03-23T09:40:41;3.30;;;2.37;;
2462;SDS011;1243;54.298;10.172;2024-03-23T09:43:08;4.50;;;2.67;;
2462;SDS011;1243;54.298;10.172;2024-03-23T09:45:42;10.70;;;2.93;;
2462;SDS011;1243;54.298;10.172;2024-03-23T09:48:10;4.40;;;2.70;;
2462;SDS011;1243;54.298;10.172;2024-03-23T09:50:41;13.00;;;2.70;;
2462;SDS011;1243;54.298;10.172;2024-03-23T09:53:08;4.63;;;2.57;;
2462;SDS011;1243;54.298;10.172;2024-03-23T09:55:37;2.73;;;2.50;;
2462;SDS011;1243;54.298;10.172;2024-03-23T09:58:05;7.93;;;3.37;;
2462;SDS011;1243;54.298;10.172;2024-03-23T10:00:38;8.70;;;2.93;;
2462;SDS011;1243;54.298;10.172;2024-03-23T10:03:06;5.27;;;3.30;;
2462;SDS011;1243;54.298;10.172;2024-03-23T10:05:36;7.40;;;2.43;;
2462;SDS011;1243;54.298;10.172;2024-03-23T10:08:18;6.67;;;2.43;;
2462;SDS011;1243;54.298;10.172;2024-03-23T10:10:47;4.50;;;3.43;;
2462;SDS011;1243;54.298;10.172;2024-03-23T10:13:26;4.57;;;2.10;;
2462;SDS011;1243;54.298;10.172;2024-03-23T10:15:57;4.47;;;2.37;;
2462;SDS011;1243;54.298;10.172;2024-03-23T10:18:24;6.23;;;2.93;;
2462;SDS011;1243;54.298;10.172;2024-03-23T10:21:13;5.63;;;3.20;;
2462;SDS011;1243;54.298;10.172;2024-03-23T10:23:41;5.87;;;3.30;;
2462;SDS011;1243;54.298;10.172;2024-03-23T10:26:15;5.07;;;3.00;;
2462;SDS011;1243;54.298;10.172;2024-03-23T10:28:52;6.20;;;2.20;;
2462;SDS011;1243;54.298;10.172;2024-03-23T10:31:43;4.93;;;2.43;;
2462;SDS011;1243;54.298;10.172;2024-03-23T10:34:12;4.13;;;2.63;;
2462;SDS011;1243;54.298;10.172;2024-03-23T10:36:39;2.93;;;2.40;;
2462;SDS011;1243;54.298;10.172;2024-03-23T10:39:09;3.60;;;2.10;;
2462;SDS011;1243;54.298;10.172;2024-03-23T10:41:36;3.73;;;3.00;;
2462;SDS011;1243;54.298;10.172;2024-03-23T10:44:06;2.60;;;2.40;;
2462;SDS011;1243;54.298;10.172;2024-03-23T10:46:33;9.90;;;3.20;;
2462;SDS011;1243;54.298;10.172;2024-03-23T10:49:01;8.40;;;2.90;;
2462;SDS011;1243;54.298;10.172;2024-03-23T10:51:27;8.60;;;3.17;;
2462;SDS011;1243;54.298;10.172;2024-03-23T10:53:55;4.70;;;2.47;;
2462;SDS011;1243;54.298;10.172;2024-03-23T10:56:22;13.63;;;3.17;;
2462;SDS011;1243;54.298;10.172;2024-03-23T10:58:48;3.93;;;2.43;;
2462;SDS011;1243;54.298;10.172;2024-03-23T11:01:16;5.33;;;3.30;;
2462;SDS011;1243;54.298;10.172;2024-03-23T11:03:46;8.37;;;3.70;;
2462;SDS011;1243;54.298;10.172;2024-03-23T11:06:35;10.50;;;2.70;;
2462;SDS011;1243;54.298;10.172;2024-03-23T11:09:00;7.23;;;2.63;;
2462;SDS011;1243;54.298;10.172;2024-03-23T11:11:28;11.40;;;3.50;;
2462;SDS011;1243;54.298;10.172;2024-03-23T11:13:59;10.20;;;3.20;;
2462;SDS011;1243;54.298;10.172;2024-03-23T11:16:26;5.17;;;2.90;;
2462;SDS011;1243;54.298;10.172;2024-03-23T11:19:32;6.50;;;1.97;;
2462;SDS011;1243;54.298;10.172;2024-03-23T11:22:04;6.57;;;3.23;;
2462;SDS011;1243;54.298;10.172;2024-03-23T11:24:32;4.80;;;2.30;;
2462;SDS011;1243;54.298;10.172;2024-03-23T11:27:00;13.40;;;3.33;;
2462;SDS011;1243;54.298;10.172;2024-03-23T11:29:29;7.43;;;2.10;;
2462;SDS011;1243;54.298;10.172;2024-03-23T11:31:55;6.50;;;2.67;;
2462;SDS011;1243;54.298;10.172;2024-03-23T11:34:21;9.57;;;3.60;;
2462;SDS011;1243;54.298;10.172;2024-03-23T11:36:48;6.90;;;2.00;;
2462;SDS011;1243;54.298;10.172;2024-03-23T11:39:17;11.13;;;2.20;;
2462;SDS011;1243;54.298;10.172;2024-03-23T11:41:47;3.27;;;2.20;;
2462;SDS011;1243;54.298;10.172;2024-03-23T11:44:19;9.47;;;2.27;;
2462;SDS011;1243;54.298;10.172;2024-03-23T11:46:51;4.67;;;2.00;;
2462;SDS011;1243;54.298;10.172;2024-03-23T11:49:21;4.40;;;1.40;;
2462;SDS011;1243;54.298;10.172;2024-03-23T11:51:47;5.27;;;3.10;;
2462;SDS011;1243;54.298;10.172;2024-03-23T11:54:13;9.80;;;6.50;;
2462;SDS011;1243;54.298;10.172;2024-03-23T11:56:40;4.30;;;3.57;;
2462;SDS011;1243;54.298;10.172;2024-03-23T11:59:36;9.80;;;4.60;;
2462;SDS011;1243;54.298;10.172;2024-03-23T12:02:11;34.20;;;23.60;;
2462;SDS011;1243;54.298;10.172;2024-03-23T12:04:42;3.37;;;1.97;;
2462;SDS011;1243;54.298;10.172;2024-03-23T12:07:12;5.20;;;2.30;;
2462;SDS011;1243;54.298;10.172;2024-03-23T12:09:47;5.60;;;2.03;;
2462;SDS011;1243;54.298;10.172;2024-03-23T12:12:29;6.13;;;1.90;;
2462;SDS011;1243;54.298;10.172;2024-03-23T12:15:04;5.87;;;2.17;;
2462;SDS011;1243;54.298;10.172;2024-03-23T12:17:34;3.80;;;2.53;;
2462;SDS011;1243;54.298;10.172;2024-03-23T12:20:01;6.97;;;3.17;;
2462;SDS011;1243;54.298;10.172;2024-03-23T12:22:30;52.73;;;47.00;;
2462;SDS011;1243;54.298;10.172;2024-03-23T12:24:56;21.57;;;13.90;;
2462;SDS011;1243;54.298;10.172;2024-03-23T12:27:22;8.70;;;2.47;;
2462;SDS011;1243;54.298;10.172;2024-03-23T12:29:50;11.67;;;8.60;;
2462;SDS011;1243;54.298;10.172;2024-03-23T12:32:16;20.03;;;13.03;;
2462;SDS011;1243;54.298;10.172;2024-03-23T12:34:43;3.83;;;2.70;;
2462;SDS011;1243;54.298;10.172;2024-03-23T12:37:09;10.10;;;2.40;;
2462;SDS011;1243;54.298;10.172;2024-03-23T12:39:35;4.50;;;2.07;;
2462;SDS011;1243;54.298;10.172;2024-03-23T12:42:01;4.90;;;2.27;;
2462;SDS011;1243;54.298;10.172;2024-03-23T12:44:30;4.70;;;2.07;;
2462;SDS011;1243;54.298;10.172;2024-03-23T12:46:56;5.37;;;4.73;;
2462;SDS011;1243;54.298;10.172;2024-03-23T12:49:22;3.13;;;2.00;;
2462;SDS011;1243;54.298;10.172;2024-03-23T12:51:52;4.40;;;2.70;;
2462;SDS011;1243;54.298;10.172;2024-03-23T12:54:20;5.40;;;2.20;;
2462;SDS011;1243;54.298;10.172;2024-03-23T12:56:47;4.40;;;1.60;;
2462;SDS011;1243;54.298;10.172;2024-03-23T12:59:13;5.30;;;3.23;;
2462;SDS011;1243;54.298;10.172;2024-03-23T13:01:39;11.77;;;2.10;;
2462;SDS011;1243;54.298;10.172;2024-03-23T13:04:05;5.93;;;2.40;;
2462;SDS011;1243;54.298;10.172;2024-03-23T13:06:31;4.43;;;1.67;;
2462;SDS011;1243;54.298;10.172;2024-03-23T13:08:59;7.23;;;2.20;;
2462;SDS011;1243;54.298;10.172;2024-03-23T13:11:28;5.30;;;2.50;;
2462;SDS011;1243;54.298;10.172;2024-03-23T13:13:54;6.70;;;2.20;;
2462;SDS011;1243;54.298;10.172;2024-03-23T13:16:20;4.27;;;1.77;;
2462;SDS011;1243;54.298;10.172;2024-03-23T13:18:46;7.40;;;2.80;;
2462;SDS011;1243;54.298;10.172;2024-03-23T13:21:11;4.70;;;2.47;;
2462;SDS011;1243;54.298;10.172;2024-03-23T13:23:37;3.43;;;2.33;;
2462;SDS011;1243;54.298;10.172;2024-03-23T13:26:06;4.97;;;2.33;;
2462;SDS011;1243;54.298;10.172;2024-03-23T13:28:32;11.73;;;10.57;;
2462;SDS011;1243;54.298;10.172;2024-03-23T13:30:58;9.27;;;8.30;;
2462;SDS011;1243;54.298;10.172;2024-03-23T13:33:29;9.07;;;2.03;;
2462;SDS011;1243;54.298;10.172;2024-03-23T13:35:57;7.17;;;2.80;;
2462;SDS011;1243;54.298;10.172;2024-03-23T13:38:23;3.93;;;3.53;;
2462;SDS011;1243;54.298;10.172;2024-03-23T13:40:50;7.50;;;3.00;;
2462;SDS011;1243;54.298;10.172;2024-03-23T13:43:19;4.63;;;2.00;;
2462;SDS011;1243;54.298;10.172;2024-03-23T13:45:46;4.83;;;2.20;;
2462;SDS011;1243;54.298;10.172;2024-03-23T13:48:19;5.20;;;2.60;;
2462;SDS011;1243;54.298;10.172;2024-03-23T13:50:46;7.40;;;3.07;;
2462;SDS011;1243;54.298;10.172;2024-03-23T13:53:13;8.60;;;4.43;;
2462;SDS011;1243;54.298;10.172;2024-03-23T13:55:48;8.17;;;2.40;;
2462;SDS011;1243;54.298;10.172;2024-03-23T13:58:14;5.30;;;2.17;;
2462;SDS011;1243;54.298;10.172;2024-03-23T14:00:40;4.90;;;2.20;;
2462;SDS011;1243;54.298;10.172;2024-03-23T14:03:12;3.00;;;2.13;;
2462;SDS011;1243;54.298;10.172;2024-03-23T14:05:39;3.90;;;1.33;;
2462;SDS011;1243;54.298;10.172;2024-03-23T14:08:06;3.53;;;1.67;;
2462;SDS011;1243;54.298;10.172;2024-03-23T14:10:32;6.20;;;2.13;;
2462;SDS011;1243;54.298;10.172;2024-03-23T14:12:58;14.83;;;2.40;;
2462;SDS011;1243;54.298;10.172;2024-03-23T14:15:27;9.97;;;2.60;;
2462;SDS011;1243;54.298;10.172;2024-03-23T14:17:52;7.57;;;2.57;;
2462;SDS011;1243;54.298;10.172;2024-03-23T14:20:20;15.60;;;3.07;;
2462;SDS011;1243;54.298;10.172;2024-03-23T14:22:46;5.43;;;2.43;;
2462;SDS011;1243;54.298;10.172;2024-03-23T14:25:14;6.13;;;3.17;;
2462;SDS011;1243;54.298;10.172;2024-03-23T14:27:40;3.67;;;2.27;;
2462;SDS011;1243;54.298;10.172;2024-03-23T14:30:10;11.03;;;2.13;;
2462;SDS011;1243;54.298;10.172;2024-03-23T14:32:38;5.77;;;1.83;;
2462;SDS011;1243;54.298;10.172;2024-03-23T14:35:04;1.40;;;1.30;;
2462;SDS011;1243;54.298;10.172;2024-03-23T14:37:32;2.83;;;1.60;;
2462;SDS011;1243;54.298;10.172;2024-03-23T14:39:59;6.47;;;2.23;;
2462;SDS011;1243;54.298;10.172;2024-03-23T14:42:28;6.03;;;2.27;;
2462;SDS011;1243;54.298;10.172;2024-03-23T14:44:54;6.10;;;2.00;;
2462;SDS011;1243;54.298;10.172;2024-03-23T14:47:20;7.10;;;2.50;;
2462;SDS011;1243;54.298;10.172;2024-03-23T14:49:46;3.80;;;2.57;;
2462;SDS011;1243;54.298;10.172;2024-03-23T14:52:15;5.40;;;2.33;;
2462;SDS011;1243;54.298;10.172;2024-03-23T14:54:42;4.17;;;1.90;;
2462;SDS011;1243;54.298;10.172;2024-03-23T14:57:10;8.03;;;2.43;;
2462;SDS011;1243;54.298;10.172;2024-03-23T14:59:36;13.03;;;2.50;;
2462;SDS011;1243;54.298;10.172;2024-03-23T15:02:09;7.93;;;3.40;;
2462;SDS011;1243;54.298;10.172;2024-03-23T15:04:39;10.13;;;2.70;;
2462;SDS011;1243;54.298;10.172;2024-03-23T15:07:09;4.27;;;1.80;;
2462;SDS011;1243;54.298;10.172;2024-03-23T15:09:36;6.50;;;2.50;;
2462;SDS011;1243;54.298;10.172;2024-03-23T15:12:04;11.90;;;3.10;;
2462;SDS011;1243;54.298;10.172;2024-03-23T15:14:30;8.40;;;2.93;;
2462;SDS011;1243;54.298;10.172;2024-03-23T15:16:58;7.87;;;3.53;;
2462;SDS011;1243;54.298;10.172;2024-03-23T15:19:25;14.57;;;3.90;;
2462;SDS011;1243;54.298;10.172;2024-03-23T15:21:51;4.70;;;2.23;;
2462;SDS011;1243;54.298;10.172;2024-03-23T15:24:17;6.30;;;2.33;;
2462;SDS011;1243;54.298;10.172;2024-03-23T15:26:46;3.77;;;2.50;;
2462;SDS011;1243;54.298;10.172;2024-03-23T15:29:15;7.00;;;2.93;;
2462;SDS011;1243;54.298;10.172;2024-03-23T15:32:02;5.83;;;3.20;;
2462;SDS011;1243;54.298;10.172;2024-03-23T15:34:28;5.77;;;3.60;;
2462;SDS011;1243;54.298;10.172;2024-03-23T15:36:56;8.70;;;2.50;;
2462;SDS011;1243;54.298;10.172;2024-03-23T15:39:22;11.27;;;3.33;;
2462;SDS011;1243;54.298;10.172;2024-03-23T15:41:49;8.77;;;2.90;;
2462;SDS011;1243;54.298;10.172;2024-03-23T15:44:15;10.53;;;3.67;;
2462;SDS011;1243;54.298;10.172;2024-03-23T15:46:40;11.67;;;3.70;;
2462;SDS011;1243;54.298;10.172;2024-03-23T15:49:07;10.87;;;3.13;;
2462;SDS011;1243;54.298;10.172;2024-03-23T15:51:34;9.63;;;3.23;;